Angler Guide Weather for Calgary -
Calgary, Alberta Current Weather Conditions
Enter your "Place, State", US Zip Code or ICAO:  
Forecast Information Radar Information
Calgary, Alberta, Canada  Lat: 51.10N, Lon: 114.02W
ICAO Used: CYBW
Current Conditions
Updated:
Sun & Moon Information:
Temp: N/A
Humidity: N/A
Wind Speed: N/A
Barometer: N/A
Dewpoint: N/A
Heat Index: N/A
Wind Chill: N/A
Civil Twilight: 7:22 AM MST
Moonrise: 9:49 AM MST Moon Phase:
Waxing Crescent Moon
Waxing Crescent Moon
Moonset: 6:38 PM MST
Sunrise: 7:59 AM MST
Sunset: 4:41 PM MST
Civil Twilight: 5:19 PM MST
Forecast for Calgary, AB:
(Forecast based on TAF for )
0110 PM MST MON NOV 06 2006
  
AFTERNOONEVENINGOVERNIGHT
MISTMOSTLY CLOUDYMOSTLY CLOUDY
MistMostly
Cloudy
Mostly
Cloudy
TAF based forecast:
Dated: 0110 PM MST MON NOV 06 2006
Afternoon...Freezing and fog with winds from the south east at 7 mph. Then turning mostly cloudy with winds from the south south west at 12 mph. Possible periods of overcast with mist.
Evening...Freezing and fog with winds from the south east at 7 mph. Then turning mostly cloudy with winds from the south south west at 12 mph.
Overnight...Turning mostly cloudy with winds from the south south west at 12 mph.
Original Encoded TAF:
Dated: 0110 PM MST MON NOV 06 2006
2006/11/06 20:10
CYBW 062010Z 062005 12006KT 1/2SM FZFG VV002 TEMPO 2024 2SM BR OVC006 FM0000Z 24010KT P6SM SCT120 BKN250=




Powered by Angler Guide.com
Copyright 2007, all rights reserved.